sensor_id;sensor_type;location;lat;lon;timestamp;pressure;altitude;pressure_sealevel;temperature;humidity
11971;BME280;6045;42.682;23.294;2022-07-23T00:00:08;94897.41;;;24.54;51.86
11971;BME280;6045;42.682;23.294;2022-07-23T00:02:35;94894.97;;;24.53;51.66
11971;BME280;6045;42.682;23.294;2022-07-23T00:05:02;94900.50;;;24.39;52.04
11971;BME280;6045;42.682;23.294;2022-07-23T00:07:29;94901.94;;;24.36;52.41
11971;BME280;6045;42.682;23.294;2022-07-23T00:09:56;94908.00;;;24.33;52.55
11971;BME280;6045;42.682;23.294;2022-07-23T00:12:23;94906.72;;;24.17;53.25
11971;BME280;6045;42.682;23.294;2022-07-23T00:14:49;94906.44;;;24.19;53.16
11971;BME280;6045;42.682;23.294;2022-07-23T00:17:21;94911.16;;;24.27;53.01
11971;BME280;6045;42.682;23.294;2022-07-23T00:19:47;94904.38;;;24.24;52.96
11971;BME280;6045;42.682;23.294;2022-07-23T00:22:14;94910.88;;;24.15;53.40
11971;BME280;6045;42.682;23.294;2022-07-23T00:24:41;94913.63;;;24.01;53.19
11971;BME280;6045;42.682;23.294;2022-07-23T00:27:08;94904.22;;;24.07;53.12
11971;BME280;6045;42.682;23.294;2022-07-23T00:29:34;94909.69;;;24.07;53.13
11971;BME280;6045;42.682;23.294;2022-07-23T00:32:01;94912.94;;;24.09;52.89
11971;BME280;6045;42.682;23.294;2022-07-23T00:34:29;94912.41;;;24.07;52.98
11971;BME280;6045;42.682;23.294;2022-07-23T00:36:56;94912.31;;;23.99;52.66
11971;BME280;6045;42.682;23.294;2022-07-23T00:39:23;94913.81;;;24.05;52.84
11971;BME280;6045;42.682;23.294;2022-07-23T00:41:50;94917.00;;;24.12;52.69
11971;BME280;6045;42.682;23.294;2022-07-23T00:44:19;94917.88;;;24.07;52.89
11971;BME280;6045;42.682;23.294;2022-07-23T00:46:47;94906.16;;;24.07;52.84
11971;BME280;6045;42.682;23.294;2022-07-23T00:49:15;94906.94;;;24.07;53.06
11971;BME280;6045;42.682;23.294;2022-07-23T00:51:43;94912.53;;;24.02;53.18
11971;BME280;6045;42.682;23.294;2022-07-23T00:54:10;94905.94;;;24.03;52.94
11971;BME280;6045;42.682;23.294;2022-07-23T00:56:37;94903.41;;;23.93;53.18
11971;BME280;6045;42.682;23.294;2022-07-23T00:59:05;94913.22;;;23.94;52.81
11971;BME280;6045;42.682;23.294;2022-07-23T01:01:32;94906.88;;;23.85;53.69
11971;BME280;6045;42.682;23.294;2022-07-23T01:03:59;94912.94;;;23.82;53.99
11971;BME280;6045;42.682;23.294;2022-07-23T01:06:25;94906.38;;;23.83;53.87
11971;BME280;6045;42.682;23.294;2022-07-23T01:08:54;94908.63;;;23.81;54.20
11971;BME280;6045;42.682;23.294;2022-07-23T01:11:23;94914.16;;;23.90;54.29
11971;BME280;6045;42.682;23.294;2022-07-23T01:13:50;94907.38;;;23.87;54.04
11971;BME280;6045;42.682;23.294;2022-07-23T01:16:16;94900.41;;;23.81;54.05
11971;BME280;6045;42.682;23.294;2022-07-23T01:18:43;94904.97;;;23.86;54.83
11971;BME280;6045;42.682;23.294;2022-07-23T01:21:11;94900.81;;;23.88;53.99
11971;BME280;6045;42.682;23.294;2022-07-23T01:23:41;94899.69;;;23.89;54.71
11971;BME280;6045;42.682;23.294;2022-07-23T01:26:07;94899.97;;;24.01;57.54
11971;BME280;6045;42.682;23.294;2022-07-23T01:28:34;94900.78;;;24.15;56.92
11971;BME280;6045;42.682;23.294;2022-07-23T01:31:01;94904.59;;;24.28;57.22
11971;BME280;6045;42.682;23.294;2022-07-23T01:33:28;94905.03;;;24.43;55.69
11971;BME280;6045;42.682;23.294;2022-07-23T01:35:54;94902.25;;;24.57;54.56
11971;BME280;6045;42.682;23.294;2022-07-23T01:38:21;94896.34;;;24.64;54.38
11971;BME280;6045;42.682;23.294;2022-07-23T01:40:49;94899.59;;;24.66;54.95
11971;BME280;6045;42.682;23.294;2022-07-23T01:43:16;94902.00;;;24.67;53.99
11971;BME280;6045;42.682;23.294;2022-07-23T01:45:43;94894.91;;;24.80;54.82
11971;BME280;6045;42.682;23.294;2022-07-23T01:48:10;94899.09;;;24.86;53.98
11971;BME280;6045;42.682;23.294;2022-07-23T01:50:36;94897.84;;;24.92;53.08
11971;BME280;6045;42.682;23.294;2022-07-23T01:53:03;94898.66;;;24.92;51.91
11971;BME280;6045;42.682;23.294;2022-07-23T01:55:30;94896.25;;;24.91;52.79
11971;BME280;6045;42.682;23.294;2022-07-23T01:57:58;94897.84;;;24.92;51.75
11971;BME280;6045;42.682;23.294;2022-07-23T02:00:25;94901.84;;;24.86;53.98
11971;BME280;6045;42.682;23.294;2022-07-23T02:02:51;94900.72;;;24.87;53.07
11971;BME280;6045;42.682;23.294;2022-07-23T02:05:18;94904.41;;;24.82;53.32
11971;BME280;6045;42.682;23.294;2022-07-23T02:07:45;94901.06;;;24.72;52.79
11971;BME280;6045;42.682;23.294;2022-07-23T02:10:12;94896.50;;;24.81;53.25
11971;BME280;6045;42.682;23.294;2022-07-23T02:12:38;94902.28;;;24.79;53.24
11971;BME280;6045;42.682;23.294;2022-07-23T02:15:07;94911.47;;;24.83;52.35
11971;BME280;6045;42.682;23.294;2022-07-23T02:17:34;94904.56;;;24.86;51.71
11971;BME280;6045;42.682;23.294;2022-07-23T02:20:01;94909.06;;;24.82;52.84
11971;BME280;6045;42.682;23.294;2022-07-23T02:22:28;94901.53;;;24.87;52.64
11971;BME280;6045;42.682;23.294;2022-07-23T02:24:54;94898.78;;;24.87;51.56
11971;BME280;6045;42.682;23.294;2022-07-23T02:27:24;94894.91;;;24.80;52.64
11971;BME280;6045;42.682;23.294;2022-07-23T02:29:51;94904.28;;;24.74;52.41
11971;BME280;6045;42.682;23.294;2022-07-23T02:32:19;94899.59;;;24.66;51.82
11971;BME280;6045;42.682;23.294;2022-07-23T02:34:46;94902.31;;;24.66;53.84
11971;BME280;6045;42.682;23.294;2022-07-23T02:37:13;94901.56;;;24.74;52.55
11971;BME280;6045;42.682;23.294;2022-07-23T02:39:40;94899.97;;;24.73;51.25
11971;BME280;6045;42.682;23.294;2022-07-23T02:42:07;94905.84;;;24.66;51.73
11971;BME280;6045;42.682;23.294;2022-07-23T02:44:36;94914.38;;;24.65;52.34
11971;BME280;6045;42.682;23.294;2022-07-23T02:47:03;94901.03;;;24.63;51.78
11971;BME280;6045;42.682;23.294;2022-07-23T02:49:31;94918.53;;;24.62;53.41
11971;BME280;6045;42.682;23.294;2022-07-23T02:51:58;94913.25;;;24.66;52.39
11971;BME280;6045;42.682;23.294;2022-07-23T02:54:25;94916.78;;;24.66;51.90
11971;BME280;6045;42.682;23.294;2022-07-23T02:56:52;94915.34;;;24.69;53.17
11971;BME280;6045;42.682;23.294;2022-07-23T02:59:19;94916.78;;;24.66;51.50
11971;BME280;6045;42.682;23.294;2022-07-23T03:01:45;94920.66;;;24.65;51.84
11971;BME280;6045;42.682;23.294;2022-07-23T03:04:12;94921.59;;;24.61;53.21
11971;BME280;6045;42.682;23.294;2022-07-23T03:06:40;94923.50;;;24.60;51.24
11971;BME280;6045;42.682;23.294;2022-07-23T03:09:07;94933.13;;;24.58;52.99
11971;BME280;6045;42.682;23.294;2022-07-23T03:11:34;94928.75;;;24.57;52.23
11971;BME280;6045;42.682;23.294;2022-07-23T03:14:01;94934.88;;;24.54;53.67
11971;BME280;6045;42.682;23.294;2022-07-23T03:16:27;94939.31;;;24.49;53.62
11971;BME280;6045;42.682;23.294;2022-07-23T03:18:54;94945.44;;;24.46;53.91
11971;BME280;6045;42.682;23.294;2022-07-23T03:21:21;94947.47;;;24.41;53.57
11971;BME280;6045;42.682;23.294;2022-07-23T03:23:49;94945.22;;;24.43;52.33
11971;BME280;6045;42.682;23.294;2022-07-23T03:26:16;94944.78;;;24.49;53.02
11971;BME280;6045;42.682;23.294;2022-07-23T03:28:43;94945.16;;;24.57;52.42
11971;BME280;6045;42.682;23.294;2022-07-23T03:31:09;94948.44;;;24.59;52.45
11971;BME280;6045;42.682;23.294;2022-07-23T03:33:36;94948.44;;;24.59;52.94
11971;BME280;6045;42.682;23.294;2022-07-23T03:36:03;94949.53;;;24.58;53.37
11971;BME280;6045;42.682;23.294;2022-07-23T03:38:30;94954.50;;;24.56;53.71
11971;BME280;6045;42.682;23.294;2022-07-23T03:40:58;94952.25;;;24.58;52.73
11971;BME280;6045;42.682;23.294;2022-07-23T03:43:25;94954.50;;;24.56;53.93
11971;BME280;6045;42.682;23.294;2022-07-23T03:45:52;94962.50;;;24.52;52.50
11971;BME280;6045;42.682;23.294;2022-07-23T03:48:18;94960.56;;;24.53;53.87
11971;BME280;6045;42.682;23.294;2022-07-23T03:50:45;94947.53;;;24.49;53.42
11971;BME280;6045;42.682;23.294;2022-07-23T03:53:12;94952.88;;;24.55;52.96
11971;BME280;6045;42.682;23.294;2022-07-23T03:55:38;94946.31;;;24.56;52.75
11971;BME280;6045;42.682;23.294;2022-07-23T03:58:07;94950.94;;;24.55;52.93
11971;BME280;6045;42.682;23.294;2022-07-23T04:00:34;94953.25;;;24.62;52.90
11971;BME280;6045;42.682;23.294;2022-07-23T04:03:01;94962.75;;;24.64;53.55
11971;BME280;6045;42.682;23.294;2022-07-23T04:05:28;94956.69;;;24.67;53.33
11971;BME280;6045;42.682;23.294;2022-07-23T04:07:55;94951.72;;;24.69;53.00
11971;BME280;6045;42.682;23.294;2022-07-23T04:10:21;94954.66;;;24.73;52.69
11971;BME280;6045;42.682;23.294;2022-07-23T04:12:48;94952.31;;;24.66;53.71
11971;BME280;6045;42.682;23.294;2022-07-23T04:15:16;94957.06;;;24.74;53.85
11971;BME280;6045;42.682;23.294;2022-07-23T04:17:43;94956.59;;;24.94;58.49
11971;BME280;6045;42.682;23.294;2022-07-23T04:20:11;94961.94;;;25.22;56.01
11971;BME280;6045;42.682;23.294;2022-07-23T04:22:37;94952.53;;;25.36;54.52
11971;BME280;6045;42.682;23.294;2022-07-23T04:25:05;94961.16;;;25.52;53.22
11971;BME280;6045;42.682;23.294;2022-07-23T04:27:32;94966.81;;;25.55;51.18
11971;BME280;6045;42.682;23.294;2022-07-23T04:29:58;94971.38;;;25.68;51.64
11971;BME280;6045;42.682;23.294;2022-07-23T04:32:27;94966.25;;;25.75;50.28
11971;BME280;6045;42.682;23.294;2022-07-23T04:34:53;94975.31;;;25.85;49.88
11971;BME280;6045;42.682;23.294;2022-07-23T04:37:20;94971.81;;;25.93;49.75
11971;BME280;6045;42.682;23.294;2022-07-23T04:39:47;94968.94;;;25.98;49.06
11971;BME280;6045;42.682;23.294;2022-07-23T04:42:14;94968.94;;;26.06;49.18
11971;BME280;6045;42.682;23.294;2022-07-23T04:44:40;94974.75;;;26.05;48.83
11971;BME280;6045;42.682;23.294;2022-07-23T04:47:07;94969.97;;;26.19;48.94
11971;BME280;6045;42.682;23.294;2022-07-23T04:49:35;94974.16;;;26.25;48.38
11971;BME280;6045;42.682;23.294;2022-07-23T04:52:04;94975.47;;;26.19;47.67
11971;BME280;6045;42.682;23.294;2022-07-23T04:54:30;94978.97;;;26.11;48.30
11971;BME280;6045;42.682;23.294;2022-07-23T04:56:57;94986.00;;;26.03;48.49
11971;BME280;6045;42.682;23.294;2022-07-23T04:59:24;94981.19;;;26.09;47.90
11971;BME280;6045;42.682;23.294;2022-07-23T05:01:51;94986.25;;;26.24;49.77
11971;BME280;6045;42.682;23.294;2022-07-23T05:04:18;94984.22;;;26.46;49.24
11971;BME280;6045;42.682;23.294;2022-07-23T05:06:46;94980.00;;;26.40;47.41
11971;BME280;6045;42.682;23.294;2022-07-23T05:09:13;94973.72;;;26.40;47.42
11971;BME280;6045;42.682;23.294;2022-07-23T05:11:40;94979.38;;;26.52;48.08
11971;BME280;6045;42.682;23.294;2022-07-23T05:14:06;94975.34;;;26.67;48.04
11971;BME280;6045;42.682;23.294;2022-07-23T05:16:33;94984.59;;;26.79;47.37
11971;BME280;6045;42.682;23.294;2022-07-23T05:19:00;94982.19;;;26.86;46.56
11971;BME280;6045;42.682;23.294;2022-07-23T05:21:26;94984.28;;;26.89;47.13
11971;BME280;6045;42.682;23.294;2022-07-23T05:23:55;94986.19;;;26.97;46.28
11971;BME280;6045;42.682;23.294;2022-07-23T05:26:22;94984.28;;;26.98;46.76
11971;BME280;6045;42.682;23.294;2022-07-23T05:28:50;94982.31;;;27.07;46.55
11971;BME280;6045;42.682;23.294;2022-07-23T05:31:17;94978.75;;;27.24;46.97
11971;BME280;6045;42.682;23.294;2022-07-23T05:33:44;94980.34;;;27.42;45.93
11971;BME280;6045;42.682;23.294;2022-07-23T05:36:10;94980.31;;;27.59;45.15
11971;BME280;6045;42.682;23.294;2022-07-23T05:38:37;94978.63;;;27.75;45.00
11971;BME280;6045;42.682;23.294;2022-07-23T05:41:05;94984.25;;;27.96;43.97
11971;BME280;6045;42.682;23.294;2022-07-23T05:43:35;94987.47;;;27.98;44.35
11971;BME280;6045;42.682;23.294;2022-07-23T05:46:02;94987.44;;;28.06;43.89
11971;BME280;6045;42.682;23.294;2022-07-23T05:48:29;94988.47;;;28.22;43.24
11971;BME280;6045;42.682;23.294;2022-07-23T05:50:56;94985.81;;;28.05;43.22
11971;BME280;6045;42.682;23.294;2022-07-23T05:53:22;94979.22;;;27.98;43.63
11971;BME280;6045;42.682;23.294;2022-07-23T05:55:49;94985.25;;;28.20;43.15
11971;BME280;6045;42.682;23.294;2022-07-23T05:58:17;94982.44;;;28.37;43.00
11971;BME280;6045;42.682;23.294;2022-07-23T06:00:44;94982.63;;;28.53;42.21
11971;BME280;6045;42.682;23.294;2022-07-23T06:03:11;94981.38;;;28.51;42.13
11971;BME280;6045;42.682;23.294;2022-07-23T06:05:38;94983.28;;;28.29;42.98
11971;BME280;6045;42.682;23.294;2022-07-23T06:08:04;94979.41;;;28.51;42.11
11971;BME280;6045;42.682;23.294;2022-07-23T06:10:31;94972.84;;;28.73;41.70
11971;BME280;6045;42.682;23.294;2022-07-23T06:12:58;94976.13;;;28.87;41.35
11971;BME280;6045;42.682;23.294;2022-07-23T06:15:26;94970.69;;;28.99;41.03
11971;BME280;6045;42.682;23.294;2022-07-23T06:17:53;94968.75;;;29.20;40.85
11971;BME280;6045;42.682;23.294;2022-07-23T06:20:20;94973.69;;;29.27;41.00
11971;BME280;6045;42.682;23.294;2022-07-23T06:22:46;94970.25;;;29.30;40.09
11971;BME280;6045;42.682;23.294;2022-07-23T06:25:13;94971.78;;;29.39;40.56
11971;BME280;6045;42.682;23.294;2022-07-23T06:27:41;94976.13;;;29.40;40.83
11971;BME280;6045;42.682;23.294;2022-07-23T06:30:09;94968.31;;;29.63;40.07
11971;BME280;6045;42.682;23.294;2022-07-23T06:32:37;94972.94;;;29.18;40.86
11971;BME280;6045;42.682;23.294;2022-07-23T06:35:05;94966.59;;;29.38;39.56
11971;BME280;6045;42.682;23.294;2022-07-23T06:37:32;94980.25;;;29.67;39.85
11971;BME280;6045;42.682;23.294;2022-07-23T06:39:58;94974.44;;;29.81;39.41
11971;BME280;6045;42.682;23.294;2022-07-23T06:42:25;94981.25;;;29.62;39.40
11971;BME280;6045;42.682;23.294;2022-07-23T06:44:52;94977.72;;;29.29;39.96
11971;BME280;6045;42.682;23.294;2022-07-23T06:47:18;94972.34;;;29.12;40.75
11971;BME280;6045;42.682;23.294;2022-07-23T06:49:47;94972.06;;;29.05;41.29
11971;BME280;6045;42.682;23.294;2022-07-23T06:52:13;94975.16;;;29.24;40.54
11971;BME280;6045;42.682;23.294;2022-07-23T06:54:40;94977.06;;;29.44;39.57
11971;BME280;6045;42.682;23.294;2022-07-23T06:57:07;94960.03;;;29.63;39.22
11971;BME280;6045;42.682;23.294;2022-07-23T06:59:34;94963.19;;;29.86;39.46
11971;BME280;6045;42.682;23.294;2022-07-23T07:02:05;94969.06;;;30.20;38.76
11971;BME280;6045;42.682;23.294;2022-07-23T07:04:32;94957.69;;;30.34;38.24
11971;BME280;6045;42.682;23.294;2022-07-23T07:07:01;94974.00;;;30.75;37.00
11971;BME280;6045;42.682;23.294;2022-07-23T07:09:27;94963.69;;;31.00;36.19
11971;BME280;6045;42.682;23.294;2022-07-23T07:11:54;94962.34;;;30.82;38.10
11971;BME280;6045;42.682;23.294;2022-07-23T07:14:22;94962.09;;;30.99;36.33
11971;BME280;6045;42.682;23.294;2022-07-23T07:16:48;94958.22;;;30.76;36.95
11971;BME280;6045;42.682;23.294;2022-07-23T07:19:15;94959.81;;;30.77;36.22
11971;BME280;6045;42.682;23.294;2022-07-23T07:21:42;94956.09;;;30.57;37.39
11971;BME280;6045;42.682;23.294;2022-07-23T07:24:10;94960.47;;;30.86;37.23
11971;BME280;6045;42.682;23.294;2022-07-23T07:26:37;94952.72;;;31.16;36.41
11971;BME280;6045;42.682;23.294;2022-07-23T07:29:05;94956.22;;;31.28;36.99
11971;BME280;6045;42.682;23.294;2022-07-23T07:31:31;94947.28;;;31.47;36.08
11971;BME280;6045;42.682;23.294;2022-07-23T07:33:59;94942.06;;;31.73;37.14
11971;BME280;6045;42.682;23.294;2022-07-23T07:36:25;94937.44;;;31.93;35.48
11971;BME280;6045;42.682;23.294;2022-07-23T07:38:52;94938.19;;;32.05;35.59
11971;BME280;6045;42.682;23.294;2022-07-23T07:41:21;94949.59;;;31.88;35.40
11971;BME280;6045;42.682;23.294;2022-07-23T07:43:49;94945.28;;;32.37;33.87
11971;BME280;6045;42.682;23.294;2022-07-23T07:46:16;94944.34;;;32.99;32.69
11971;BME280;6045;42.682;23.294;2022-07-23T07:48:43;94934.09;;;33.19;33.45
11971;BME280;6045;42.682;23.294;2022-07-23T07:51:10;94938.19;;;33.63;33.05
11971;BME280;6045;42.682;23.294;2022-07-23T07:53:37;94943.59;;;33.37;32.15
11971;BME280;6045;42.682;23.294;2022-07-23T07:56:05;94939.91;;;33.33;33.01
11971;BME280;6045;42.682;23.294;2022-07-23T07:58:34;94931.41;;;33.23;32.07
11971;BME280;6045;42.682;23.294;2022-07-23T08:01:00;94924.44;;;32.94;31.30
11971;BME280;6045;42.682;23.294;2022-07-23T08:03:27;94929.72;;;33.18;32.26
11971;BME280;6045;42.682;23.294;2022-07-23T08:05:54;94933.84;;;33.66;30.98
11971;BME280;6045;42.682;23.294;2022-07-23T08:08:21;94933.03;;;34.07;31.26
11971;BME280;6045;42.682;23.294;2022-07-23T08:10:48;94926.84;;;34.17;31.28
11971;BME280;6045;42.682;23.294;2022-07-23T08:13:15;94923.59;;;34.12;31.29
11971;BME280;6045;42.682;23.294;2022-07-23T08:15:44;94933.47;;;34.35;31.46
11971;BME280;6045;42.682;23.294;2022-07-23T08:18:11;94927.84;;;34.81;30.37
11971;BME280;6045;42.682;23.294;2022-07-23T08:20:38;94933.19;;;34.93;29.10
11971;BME280;6045;42.682;23.294;2022-07-23T08:23:06;94924.13;;;34.99;29.63
11971;BME280;6045;42.682;23.294;2022-07-23T08:25:35;94929.94;;;35.17;29.48
11971;BME280;6045;42.682;23.294;2022-07-23T08:28:04;94922.72;;;35.46;29.89
11971;BME280;6045;42.682;23.294;2022-07-23T08:30:32;94925.03;;;35.40;30.19
11971;BME280;6045;42.682;23.294;2022-07-23T08:33:02;94921.31;;;35.59;29.96
11971;BME280;6045;42.682;23.294;2022-07-23T08:35:31;94917.59;;;35.85;28.31
11971;BME280;6045;42.682;23.294;2022-07-23T08:37:59;94920.00;;;36.30;28.41
11971;BME280;6045;42.682;23.294;2022-07-23T08:40:28;94923.13;;;36.21;28.42
11971;BME280;6045;42.682;23.294;2022-07-23T08:42:56;94916.56;;;36.00;27.52
11971;BME280;6045;42.682;23.294;2022-07-23T08:45:24;94918.03;;;35.90;28.23
11971;BME280;6045;42.682;23.294;2022-07-23T08:47:53;94912.84;;;36.29;28.16
11971;BME280;6045;42.682;23.294;2022-07-23T08:50:22;94913.44;;;36.52;27.05
11971;BME280;6045;42.682;23.294;2022-07-23T08:52:52;94915.34;;;36.45;28.38
11971;BME280;6045;42.682;23.294;2022-07-23T08:55:21;94909.19;;;36.72;27.30
11971;BME280;6045;42.682;23.294;2022-07-23T08:57:50;94902.38;;;36.70;27.55
11971;BME280;6045;42.682;23.294;2022-07-23T09:00:18;94907.56;;;36.64;26.01
11971;BME280;6045;42.682;23.294;2022-07-23T09:02:46;94906.53;;;36.35;26.92
11971;BME280;6045;42.682;23.294;2022-07-23T09:05:15;94905.13;;;36.08;28.13
11971;BME280;6045;42.682;23.294;2022-07-23T09:08:06;94900.16;;;35.91;27.02
11971;BME280;6045;42.682;23.294;2022-07-23T09:10:43;94903.03;;;35.61;28.60
11971;BME280;6045;42.682;23.294;2022-07-23T09:13:23;94897.13;;;35.63;27.90
11971;BME280;6045;42.682;23.294;2022-07-23T09:15:51;94892.78;;;36.06;27.10
11971;BME280;6045;42.682;23.294;2022-07-23T09:18:28;94898.41;;;36.16;27.05
11971;BME280;6045;42.682;23.294;2022-07-23T09:21:05;94903.22;;;36.19;27.26
11971;BME280;6045;42.682;23.294;2022-07-23T09:23:38;94895.50;;;36.50;26.85
11971;BME280;6045;42.682;23.294;2022-07-23T09:26:30;94898.88;;;36.80;26.62
11971;BME280;6045;42.682;23.294;2022-07-23T09:29:06;94894.25;;;37.01;26.37
11971;BME280;6045;42.682;23.294;2022-07-23T09:31:42;94899.88;;;37.12;26.59
11971;BME280;6045;42.682;23.294;2022-07-23T09:34:12;94899.97;;;37.33;26.17
11971;BME280;6045;42.682;23.294;2022-07-23T09:36:39;94891.25;;;37.59;25.98
11971;BME280;6045;42.682;23.294;2022-07-23T09:39:08;94892.50;;;37.73;25.38
11971;BME280;6045;42.682;23.294;2022-07-23T09:41:38;94892.88;;;37.67;24.87
11971;BME280;6045;42.682;23.294;2022-07-23T09:44:13;94883.41;;;37.90;25.11
11971;BME280;6045;42.682;23.294;2022-07-23T09:46:41;94877.34;;;37.74;25.16
11971;BME280;6045;42.682;23.294;2022-07-23T09:49:18;94878.53;;;37.69;24.79
11971;BME280;6045;42.682;23.294;2022-07-23T09:51:51;94878.13;;;37.60;23.60
11971;BME280;6045;42.682;23.294;2022-07-23T09:54:30;94876.41;;;37.27;23.71
11971;BME280;6045;42.682;23.294;2022-07-23T09:57:03;94873.91;;;37.01;23.14
11971;BME280;6045;42.682;23.294;2022-07-23T09:59:32;94870.06;;;36.55;23.31
11971;BME280;6045;42.682;23.294;2022-07-23T10:01:59;94866.91;;;36.60;24.94
11971;BME280;6045;42.682;23.294;2022-07-23T10:04:28;94868.66;;;36.89;24.25
11971;BME280;6045;42.682;23.294;2022-07-23T10:06:57;94866.03;;;37.24;23.88
11971;BME280;6045;42.682;23.294;2022-07-23T10:09:28;94870.50;;;37.50;23.13
11971;BME280;6045;42.682;23.294;2022-07-23T10:11:56;94860.59;;;37.77;22.47
11971;BME280;6045;42.682;23.294;2022-07-23T10:14:31;94860.25;;;38.00;22.13
11971;BME280;6045;42.682;23.294;2022-07-23T10:17:00;94858.66;;;37.92;22.07
11971;BME280;6045;42.682;23.294;2022-07-23T10:19:28;94852.69;;;38.11;22.33
11971;BME280;6045;42.682;23.294;2022-07-23T10:21:58;94856.25;;;38.15;22.25
11971;BME280;6045;42.682;23.294;2022-07-23T10:24:43;94853.06;;;38.06;21.52
11971;BME280;6045;42.682;23.294;2022-07-23T10:27:30;94859.47;;;37.99;20.66
11971;BME280;6045;42.682;23.294;2022-07-23T10:30:02;94846.69;;;37.95;20.01
11971;BME280;6045;42.682;23.294;2022-07-23T10:32:39;94855.50;;;38.32;20.16
11971;BME280;6045;42.682;23.294;2022-07-23T10:35:12;94850.66;;;38.43;20.85
11971;BME280;6045;42.682;23.294;2022-07-23T10:37:42;94839.47;;;38.54;19.82
11971;BME280;6045;42.682;23.294;2022-07-23T10:40:14;94846.66;;;38.51;19.80
11971;BME280;6045;42.682;23.294;2022-07-23T10:42:43;94844.28;;;38.36;20.52
11971;BME280;6045;42.682;23.294;2022-07-23T10:45:27;94832.28;;;38.49;19.57
11971;BME280;6045;42.682;23.294;2022-07-23T10:47:54;94830.31;;;38.46;20.89
11971;BME280;6045;42.682;23.294;2022-07-23T10:50:23;94831.06;;;38.57;20.89
11971;BME280;6045;42.682;23.294;2022-07-23T10:53:13;94824.63;;;38.85;18.46
11971;BME280;6045;42.682;23.294;2022-07-23T10:55:52;94818.97;;;39.03;17.80
11971;BME280;6045;42.682;23.294;2022-07-23T10:58:46;94820.13;;;39.09;18.49
11971;BME280;6045;42.682;23.294;2022-07-23T11:01:33;94813.34;;;39.17;20.16
11971;BME280;6045;42.682;23.294;2022-07-23T11:04:00;94810.91;;;39.19;20.10
11971;BME280;6045;42.682;23.294;2022-07-23T11:09:28;94803.72;;;39.14;17.96
11971;BME280;6045;42.682;23.294;2022-07-23T11:15:00;94792.56;;;39.04;19.66
11971;BME280;6045;42.682;23.294;2022-07-23T11:17:28;94796.22;;;39.01;18.22
11971;BME280;6045;42.682;23.294;2022-07-23T11:20:19;94793.91;;;38.67;17.49
11971;BME280;6045;42.682;23.294;2022-07-23T11:22:48;94787.97;;;38.48;17.66
11971;BME280;6045;42.682;23.294;2022-07-23T11:25:34;94787.19;;;38.47;18.48
11971;BME280;6045;42.682;23.294;2022-07-23T11:28:14;94782.81;;;38.43;18.39
11971;BME280;6045;42.682;23.294;2022-07-23T11:30:43;94778.75;;;38.61;18.36
11971;BME280;6045;42.682;23.294;2022-07-23T11:33:19;94777.91;;;38.75;18.92
11971;BME280;6045;42.682;23.294;2022-07-23T11:35:47;94780.31;;;38.83;15.94
11971;BME280;6045;42.682;23.294;2022-07-23T11:38:16;94782.31;;;38.79;16.26
11971;BME280;6045;42.682;23.294;2022-07-23T11:40:45;94776.31;;;38.81;15.63
11971;BME280;6045;42.682;23.294;2022-07-23T11:43:13;94773.06;;;38.93;16.23
11971;BME280;6045;42.682;23.294;2022-07-23T11:45:43;94766.31;;;38.83;14.96
11971;BME280;6045;42.682;23.294;2022-07-23T11:48:18;94772.31;;;38.78;15.93
11971;BME280;6045;42.682;23.294;2022-07-23T11:50:45;94760.34;;;38.81;14.84
11971;BME280;6045;42.682;23.294;2022-07-23T11:53:12;94758.78;;;38.63;14.89
11971;BME280;6045;42.682;23.294;2022-07-23T11:55:39;94761.25;;;38.40;14.74
11971;BME280;6045;42.682;23.294;2022-07-23T11:58:06;94766.84;;;38.36;15.51
11971;BME280;6045;42.682;23.294;2022-07-23T12:00:33;94760.09;;;38.33;16.70
11971;BME280;6045;42.682;23.294;2022-07-23T12:03:02;94762.03;;;38.47;16.61
11971;BME280;6045;42.682;23.294;2022-07-23T12:05:33;94757.16;;;38.65;16.54
11971;BME280;6045;42.682;23.294;2022-07-23T12:08:01;94757.94;;;38.83;16.17
11971;BME280;6045;42.682;23.294;2022-07-23T12:10:30;94763.00;;;39.10;16.02
11971;BME280;6045;42.682;23.294;2022-07-23T12:13:04;94753.75;;;39.13;15.29
11971;BME280;6045;42.682;23.294;2022-07-23T12:15:32;94754.25;;;39.01;16.77
11971;BME280;6045;42.682;23.294;2022-07-23T12:18:01;94749.78;;;39.14;16.33
11971;BME280;6045;42.682;23.294;2022-07-23T12:20:30;94744.16;;;39.21;14.97
11971;BME280;6045;42.682;23.294;2022-07-23T12:22:58;94739.38;;;39.18;14.60
11971;BME280;6045;42.682;23.294;2022-07-23T12:25:30;94739.44;;;39.04;15.63
11971;BME280;6045;42.682;23.294;2022-07-23T12:28:03;94734.75;;;38.83;15.68
11971;BME280;6045;42.682;23.294;2022-07-23T12:30:32;94734.00;;;38.75;15.03
11971;BME280;6045;42.682;23.294;2022-07-23T12:33:01;94725.25;;;38.59;14.42
11971;BME280;6045;42.682;23.294;2022-07-23T12:35:33;94726.09;;;38.49;14.79
11971;BME280;6045;42.682;23.294;2022-07-23T12:38:03;94724.47;;;38.52;15.20
11971;BME280;6045;42.682;23.294;2022-07-23T12:40:32;94716.06;;;38.62;14.76
11971;BME280;6045;42.682;23.294;2022-07-23T12:43:05;94717.28;;;38.58;16.30
11971;BME280;6045;42.682;23.294;2022-07-23T12:45:43;94718.06;;;38.58;15.82
11971;BME280;6045;42.682;23.294;2022-07-23T12:48:18;94714.81;;;38.70;14.66
11971;BME280;6045;42.682;23.294;2022-07-23T12:50:50;94712.84;;;38.74;15.77
11971;BME280;6045;42.682;23.294;2022-07-23T12:53:19;94712.84;;;38.74;14.39
11971;BME280;6045;42.682;23.294;2022-07-23T12:55:47;94708.91;;;38.54;14.18
11971;BME280;6045;42.682;23.294;2022-07-23T12:58:17;94709.75;;;38.37;14.36
11971;BME280;6045;42.682;23.294;2022-07-23T13:01:02;94706.59;;;38.21;14.77
11971;BME280;6045;42.682;23.294;2022-07-23T13:03:37;94714.22;;;38.13;14.52
11971;BME280;6045;42.682;23.294;2022-07-23T13:06:06;94704.66;;;38.11;15.81
11971;BME280;6045;42.682;23.294;2022-07-23T13:08:35;94701.06;;;38.07;15.48
11971;BME280;6045;42.682;23.294;2022-07-23T13:11:03;94699.44;;;38.20;15.34
11971;BME280;6045;42.682;23.294;2022-07-23T13:13:32;94693.03;;;38.16;14.59